createdAt,value
2018-11-05T00:00:21.841Z,155.20
2018-11-05T00:02:52.843Z,171.07
2018-11-05T00:05:27.082Z,144.87
2018-11-05T00:07:57.101Z,187.83
2018-11-05T00:10:27.161Z,163.73
2018-11-05T00:12:57.400Z,172.57
2018-11-05T00:15:27.320Z,159.63
2018-11-05T00:17:57.460Z,190.67
2018-11-05T00:20:32.481Z,160.67
2018-11-05T00:23:04.163Z,154.63
2018-11-05T00:25:36.442Z,165.37
2018-11-05T00:28:08.121Z,150.67
2018-11-05T00:30:40.481Z,158.93
2018-11-05T00:33:11.720Z,179.63
2018-11-05T00:35:44.239Z,180.60
2018-11-05T00:38:16.722Z,172.87
2018-11-05T00:40:48.698Z,300.00
2018-11-05T00:43:20.078Z,220.10
2018-11-05T00:46:24.479Z,268.13
2018-11-05T00:48:55.079Z,468.80
2018-11-05T00:51:25.178Z,239.87
2018-11-05T00:53:55.359Z,613.00
2018-11-05T00:56:25.438Z,222.30
2018-11-05T00:58:55.198Z,200.40
2018-11-05T01:01:25.321Z,215.67
2018-11-05T01:03:55.344Z,241.90
2018-11-05T01:06:26.581Z,228.30
2018-11-05T01:08:56.543Z,237.00
2018-11-05T01:11:26.421Z,204.27
2018-11-05T01:13:56.524Z,221.57
2018-11-05T01:16:26.341Z,204.73
2018-11-05T01:18:56.610Z,271.50
2018-11-05T01:21:26.462Z,222.07
2018-11-05T01:23:56.309Z,185.40
2018-11-05T01:26:27.121Z,194.83
2018-11-05T01:29:00.961Z,185.47
2018-11-05T01:31:30.702Z,190.30
2018-11-05T01:34:01.184Z,177.90
2018-11-05T01:36:31.184Z,163.47
2018-11-05T01:39:01.262Z,177.93
2018-11-05T01:41:32.942Z,166.53
2018-11-05T01:44:03.022Z,172.47
2018-11-05T01:46:33.122Z,196.50
2018-11-05T01:49:02.944Z,185.87
2018-11-05T01:51:37.561Z,170.23
2018-11-05T01:54:07.449Z,188.87
2018-11-05T01:56:39.345Z,197.77
2018-11-05T01:59:09.322Z,175.93
2018-11-05T02:01:39.102Z,174.27
2018-11-05T02:04:09.042Z,170.57
2018-11-05T02:06:39.142Z,169.13
2018-11-05T02:09:10.201Z,166.00
2018-11-05T02:11:40.562Z,170.00
2018-11-05T02:14:10.402Z,158.80
2018-11-05T02:16:40.246Z,187.47
2018-11-05T02:19:15.721Z,189.67
2018-11-05T02:21:45.719Z,224.40
2018-11-05T02:24:15.780Z,193.53
2018-11-05T02:26:48.066Z,197.93
2018-11-05T02:29:30.600Z,257.23
2018-11-05T02:32:00.420Z,197.00
2018-11-05T02:34:30.300Z,217.63
2018-11-05T02:37:00.080Z,193.90
2018-11-05T02:39:30.500Z,172.70
2018-11-05T02:42:00.719Z,171.97
2018-11-05T02:44:30.860Z,153.53
2018-11-05T02:47:00.620Z,154.97
2018-11-05T02:49:30.700Z,145.13
2018-11-05T02:52:00.780Z,127.23
2018-11-05T02:54:30.900Z,128.17
2018-11-05T02:57:00.940Z,131.17
2018-11-05T02:59:30.920Z,134.93
2018-11-05T03:02:00.783Z,134.03
2018-11-05T03:04:30.920Z,140.17
2018-11-05T03:07:00.941Z,162.53
2018-11-05T03:09:32.401Z,155.00
2018-11-05T03:12:02.381Z,165.97
2018-11-05T03:14:32.220Z,149.13
2018-11-05T03:17:02.680Z,146.60
2018-11-05T03:19:32.940Z,162.77
2018-11-05T03:22:03.000Z,157.83
2018-11-05T03:24:32.780Z,155.00
2018-11-05T03:27:02.780Z,156.60
2018-11-05T03:29:32.621Z,145.27
2018-11-05T03:32:02.380Z,136.20
2018-11-05T03:34:32.501Z,150.97
2018-11-05T03:37:02.821Z,142.50
2018-11-05T03:39:33.901Z,124.63
2018-11-05T03:42:03.761Z,154.97
2018-11-05T03:44:33.700Z,155.83
2018-11-05T03:47:05.661Z,142.17
2018-11-05T03:49:35.821Z,159.90
2018-11-05T03:52:06.291Z,200.77
2018-11-05T03:54:36.301Z,198.07
2018-11-05T03:57:14.361Z,163.23
2018-11-05T03:59:44.321Z,169.30
2018-11-05T04:02:14.521Z,185.30
2018-11-05T04:04:45.838Z,198.03
2018-11-05T04:07:15.658Z,170.43
2018-11-05T04:09:45.698Z,186.50
2018-11-05T04:12:15.501Z,159.43
2018-11-05T04:14:45.579Z,170.30
2018-11-05T04:17:15.718Z,165.10
2018-11-05T04:19:46.023Z,185.03
2018-11-05T04:22:16.220Z,239.37
2018-11-05T04:24:50.379Z,193.33
2018-11-05T04:27:20.099Z,243.60
2018-11-05T04:29:50.538Z,261.93
2018-11-05T04:32:20.899Z,425.30
2018-11-05T04:34:50.720Z,353.23
2018-11-05T04:37:20.798Z,552.30
2018-11-05T04:39:51.139Z,533.60
2018-11-05T04:42:22.247Z,391.30
2018-11-05T04:44:52.238Z,368.13
2018-11-05T04:47:22.439Z,620.07
2018-11-05T04:49:58.660Z,319.90
2018-11-05T04:52:29.922Z,368.83
2018-11-05T04:54:59.939Z,267.27
2018-11-05T04:57:30.081Z,324.47
2018-11-05T05:00:04.079Z,368.13
2018-11-05T05:02:34.269Z,354.80
2018-11-05T05:05:04.660Z,194.73
2018-11-05T05:07:34.881Z,264.67
2018-11-05T05:10:05.266Z,231.80
2018-11-05T05:12:35.121Z,208.53
2018-11-05T05:15:06.721Z,227.90
2018-11-05T05:17:36.421Z,233.10
2018-11-05T05:20:11.101Z,217.27
2018-11-05T05:22:41.330Z,209.30
2018-11-05T05:25:11.200Z,188.17
2018-11-05T05:27:41.220Z,206.10
2018-11-05T05:30:14.543Z,205.17
2018-11-05T05:32:45.284Z,213.23
2018-11-05T05:35:15.719Z,206.63
2018-11-05T05:37:45.460Z,196.63
2018-11-05T05:40:15.399Z,197.80
2018-11-05T05:42:45.582Z,186.87
2018-11-05T05:45:15.722Z,165.63
2018-11-05T05:47:46.060Z,167.03
2018-11-05T05:50:17.847Z,166.63
2018-11-05T05:52:49.419Z,157.23
2018-11-05T05:55:19.619Z,172.97
2018-11-05T05:57:49.419Z,171.97
2018-11-05T06:00:21.264Z,165.57
2018-11-05T06:02:51.749Z,162.37
2018-11-05T06:05:21.781Z,164.53
2018-11-05T06:07:51.521Z,180.63
2018-11-05T06:10:21.262Z,181.07
2018-11-05T06:12:51.241Z,165.63
2018-11-05T06:15:21.424Z,186.27
2018-11-05T06:17:51.461Z,160.60
2018-11-05T06:20:22.940Z,170.50
2018-11-05T06:22:53.901Z,166.53
2018-11-05T06:25:23.642Z,154.00
2018-11-05T06:27:53.339Z,153.70
2018-11-05T06:30:24.579Z,156.37
2018-11-05T06:32:54.580Z,150.33
2018-11-05T06:35:24.748Z,156.37
2018-11-05T06:37:54.663Z,125.53
2018-11-05T06:40:24.559Z,139.53
2018-11-05T06:42:54.378Z,131.93
2018-11-05T06:45:24.644Z,133.33
2018-11-05T06:47:54.759Z,120.23
2018-11-05T06:50:26.700Z,109.23
2018-11-05T06:52:57.170Z,113.17
2018-11-05T06:55:26.862Z,104.60
2018-11-05T06:57:56.524Z,107.73
2018-11-05T07:00:27.493Z,99.20
2018-11-05T07:02:57.437Z,89.80
2018-11-05T07:05:35.539Z,92.90
2018-11-05T07:08:05.188Z,89.50
2018-11-05T07:10:34.814Z,80.27
2018-11-05T07:13:04.382Z,80.00
2018-11-05T07:15:34.161Z,86.33
2018-11-05T07:18:08.543Z,74.17
2018-11-05T07:20:43.409Z,74.77
2018-11-05T07:23:13.032Z,68.90
2018-11-05T07:25:51.089Z,67.33
2018-11-05T07:28:20.574Z,70.03
2018-11-05T07:30:55.643Z,61.90
2018-11-05T07:33:25.632Z,65.97
2018-11-05T07:35:55.819Z,64.53
2018-11-05T07:38:25.677Z,62.70
2018-11-05T07:40:55.637Z,56.73
2018-11-05T07:43:25.538Z,63.00
2018-11-05T07:46:11.219Z,56.83
2018-11-05T07:48:41.270Z,59.53
2018-11-05T07:51:11.319Z,59.13
2018-11-05T07:53:41.439Z,61.63
2018-11-05T07:56:11.193Z,63.50
2018-11-05T07:58:41.261Z,54.63
2018-11-05T08:01:11.358Z,57.23
2018-11-05T08:03:41.418Z,57.63
2018-11-05T08:06:11.820Z,55.00
2018-11-05T08:08:41.998Z,54.47
2018-11-05T08:11:12.238Z,54.33
2018-11-05T08:13:42.060Z,53.53
2018-11-05T08:16:12.358Z,52.10
2018-11-05T08:18:42.618Z,52.93
2018-11-05T08:21:12.726Z,50.37
2018-11-05T08:23:43.180Z,52.97
2018-11-05T08:26:13.978Z,49.43
2018-11-05T08:28:44.224Z,43.97
2018-11-05T08:31:14.538Z,42.77
2018-11-05T08:33:46.280Z,43.67
2018-11-05T08:36:16.181Z,38.03
2018-11-05T08:41:20.041Z,36.97
2018-11-05T08:43:50.221Z,39.47
2018-11-05T08:46:20.260Z,35.43
2018-11-05T08:48:50.127Z,34.83
2018-11-05T08:51:20.484Z,36.77
2018-11-05T08:53:50.325Z,36.20
2018-11-05T08:56:20.159Z,33.43
2018-11-05T08:58:50.219Z,37.03
2018-11-05T09:01:20.191Z,36.93
2018-11-05T09:03:51.172Z,34.97
2018-11-05T09:06:21.185Z,32.73
2018-11-05T09:08:51.704Z,35.97
2018-11-05T09:11:26.595Z,36.40
2018-11-05T09:13:56.104Z,36.73
2018-11-05T09:16:26.063Z,33.00
2018-11-05T09:18:55.844Z,34.50
2018-11-05T09:21:25.623Z,31.80
2018-11-05T09:23:59.464Z,30.63
2018-11-05T09:26:30.184Z,33.97
2018-11-05T09:29:00.304Z,34.03
2018-11-05T09:31:30.004Z,32.03
2018-11-05T09:33:59.804Z,34.10
2018-11-05T09:36:31.066Z,34.77
2018-11-05T09:39:02.627Z,31.83
2018-11-05T09:41:32.340Z,31.67
2018-11-05T09:44:02.780Z,34.27
2018-11-05T09:46:32.741Z,27.67
2018-11-05T09:49:02.800Z,29.80
2018-11-05T09:51:32.961Z,28.93
2018-11-05T09:54:02.900Z,26.70
2018-11-05T09:56:32.981Z,27.83
2018-11-05T09:59:02.860Z,26.27
2018-11-05T10:01:33.522Z,28.03
2018-11-05T10:04:03.928Z,28.53
2018-11-05T10:06:34.042Z,27.37
2018-11-05T10:09:04.002Z,25.47
2018-11-05T10:11:33.742Z,25.07
2018-11-05T10:14:03.961Z,29.40
2018-11-05T10:19:22.702Z,24.53
2018-11-05T10:21:52.882Z,28.97
2018-11-05T10:24:22.752Z,26.13
2018-11-05T10:26:53.920Z,28.67
2018-11-05T10:29:24.061Z,24.73
2018-11-05T10:31:53.740Z,28.23
2018-11-05T10:34:30.383Z,25.10
2018-11-05T10:37:00.640Z,24.77
2018-11-05T10:39:30.521Z,25.70
2018-11-05T10:42:00.441Z,24.40
2018-11-05T10:44:30.222Z,23.83
2018-11-05T10:47:00.046Z,27.67
2018-11-05T10:49:30.105Z,23.87
2018-11-05T10:52:00.224Z,27.10
2018-11-05T10:54:29.803Z,24.07
2018-11-05T10:57:00.044Z,27.93
2018-11-05T10:59:30.240Z,25.23
2018-11-05T11:02:05.624Z,25.57
2018-11-05T11:04:36.644Z,23.73
2018-11-05T11:07:11.224Z,24.43
2018-11-05T11:09:41.220Z,24.70
2018-11-05T11:12:10.994Z,27.13
2018-11-05T11:14:41.105Z,27.03
2018-11-05T11:17:10.588Z,26.33
2018-11-05T11:19:47.763Z,24.60
2018-11-05T11:22:17.722Z,25.33
2018-11-05T11:24:48.143Z,29.83
2018-11-05T11:27:22.823Z,28.70
2018-11-05T11:29:52.784Z,28.07
2018-11-05T11:32:23.504Z,28.73
2018-11-05T11:34:57.764Z,29.63
2018-11-05T11:37:27.844Z,25.97
2018-11-05T11:39:57.683Z,33.23
2018-11-05T11:42:27.984Z,30.77
2018-11-05T11:44:58.223Z,33.10
2018-11-05T11:47:27.903Z,30.80
2018-11-05T11:50:02.644Z,28.23
2018-11-05T11:52:32.832Z,31.97
2018-11-05T11:55:03.078Z,34.97
2018-11-05T11:57:33.483Z,31.30
2018-11-05T12:00:03.423Z,27.83
2018-11-05T12:02:33.483Z,30.43
2018-11-05T12:05:03.143Z,32.70
2018-11-05T12:07:33.180Z,32.13
2018-11-05T12:10:04.564Z,36.90
2018-11-05T12:12:35.040Z,32.73
2018-11-05T12:15:04.985Z,35.67
2018-11-05T12:17:34.901Z,38.63
2018-11-05T12:20:04.616Z,35.60
2018-11-05T12:22:36.940Z,32.87
2018-11-05T12:25:07.119Z,35.43
2018-11-05T12:27:37.420Z,33.47
2018-11-05T12:30:12.680Z,33.63
2018-11-05T12:32:43.001Z,31.10
2018-11-05T12:35:14.021Z,33.17
2018-11-05T12:37:44.960Z,38.23
2018-11-05T12:40:17.041Z,31.90
2018-11-05T12:42:48.344Z,34.43
2018-11-05T12:45:18.242Z,36.90
2018-11-05T12:47:48.720Z,37.47
2018-11-05T12:50:23.210Z,35.37
2018-11-05T12:52:54.420Z,34.97
2018-11-05T12:55:24.579Z,37.43
2018-11-05T12:57:54.380Z,39.57
2018-11-05T13:00:25.663Z,36.97
2018-11-05T13:02:58.069Z,36.27
2018-11-05T13:05:29.152Z,43.13
2018-11-05T13:07:59.789Z,37.30
2018-11-05T13:10:29.928Z,38.10
2018-11-05T13:13:00.084Z,41.73
2018-11-05T13:15:30.069Z,42.87
2018-11-05T13:18:00.150Z,38.10
2018-11-05T13:20:29.951Z,41.03
2018-11-05T13:23:00.797Z,41.03
2018-11-05T13:25:36.581Z,36.20
2018-11-05T13:28:10.964Z,39.30
2018-11-05T13:30:41.120Z,38.00
2018-11-05T13:33:12.120Z,40.17
2018-11-05T13:35:42.360Z,42.00
2018-11-05T13:38:12.845Z,40.60
2018-11-05T13:40:42.220Z,40.37
2018-11-05T13:43:12.150Z,40.57
2018-11-05T13:45:42.193Z,43.00
2018-11-05T13:48:16.138Z,47.80
2018-11-05T13:50:45.823Z,49.17
2018-11-05T13:53:16.360Z,49.07
2018-11-05T13:55:46.307Z,54.13
2018-11-05T13:58:21.148Z,49.37
2018-11-05T14:00:51.049Z,52.13
2018-11-05T14:03:28.800Z,54.17
2018-11-05T14:05:59.002Z,51.50
2018-11-05T14:08:28.963Z,53.00
2018-11-05T14:10:59.354Z,56.90
2018-11-05T14:13:29.228Z,57.50
2018-11-05T14:15:58.959Z,52.47
2018-11-05T14:18:29.045Z,54.13
2018-11-05T14:20:58.872Z,56.67
2018-11-05T14:23:34.819Z,54.70
2018-11-05T14:26:04.803Z,55.43
2018-11-05T14:28:39.119Z,57.87
2018-11-05T14:31:08.967Z,50.80
2018-11-05T14:33:54.946Z,50.00
2018-11-05T14:36:25.066Z,52.00
2018-11-05T14:38:55.279Z,52.50
2018-11-05T14:41:25.060Z,54.17
2018-11-05T14:43:54.900Z,58.67
2018-11-05T14:46:25.029Z,59.20
2018-11-05T14:48:54.815Z,60.20
2018-11-05T14:51:24.881Z,59.10
2018-11-05T14:53:54.622Z,58.67
2018-11-05T14:56:24.642Z,57.17
2018-11-05T14:58:55.038Z,56.90
2018-11-05T15:01:25.279Z,59.70
2018-11-05T15:03:55.142Z,63.77
2018-11-05T15:06:25.169Z,61.17
2018-11-05T15:08:55.187Z,62.63
2018-11-05T15:11:25.079Z,67.77
2018-11-05T15:14:03.305Z,65.70
2018-11-05T15:16:33.599Z,62.67
2018-11-05T15:19:04.456Z,61.83
2018-11-05T15:21:34.078Z,68.87
2018-11-05T15:24:09.527Z,65.50
2018-11-05T15:26:39.727Z,67.17
2018-11-05T15:29:09.501Z,66.13
2018-11-05T15:31:39.662Z,77.90
2018-11-05T15:34:10.236Z,77.50
2018-11-05T15:36:40.607Z,69.73
2018-11-05T15:39:10.699Z,66.33
2018-11-05T15:41:41.160Z,69.47
2018-11-05T15:44:11.396Z,66.47
2018-11-05T15:46:41.271Z,68.50
2018-11-05T15:49:11.064Z,66.90
2018-11-05T15:51:46.303Z,71.43
2018-11-05T15:54:16.456Z,73.67
2018-11-05T15:56:46.667Z,68.37
2018-11-05T15:59:17.489Z,66.73
2018-11-05T16:01:47.664Z,67.03
2018-11-05T16:04:17.664Z,73.80
2018-11-05T16:06:47.508Z,71.57
2018-11-05T16:09:17.613Z,75.43
2018-11-05T16:11:47.696Z,71.17
2018-11-05T16:14:17.541Z,72.90
2018-11-05T16:16:47.609Z,78.27
2018-11-05T16:19:17.635Z,84.63
2018-11-05T16:21:48.004Z,78.97
2018-11-05T16:24:19.958Z,75.77
2018-11-05T16:27:02.330Z,74.37
2018-11-05T16:29:32.645Z,75.13
2018-11-05T16:32:02.424Z,82.37
2018-11-05T16:34:36.445Z,76.33
2018-11-05T16:37:06.549Z,81.53
2018-11-05T16:39:37.137Z,82.80
2018-11-05T16:42:07.547Z,82.90
2018-11-05T16:44:37.661Z,82.37
2018-11-05T16:47:07.680Z,80.67
2018-11-05T16:49:37.764Z,85.63
2018-11-05T16:52:09.488Z,95.30
2018-11-05T16:54:41.862Z,91.67
2018-11-05T16:57:14.466Z,79.30
2018-11-05T16:59:45.767Z,82.40
2018-11-05T17:02:18.193Z,82.90
2018-11-05T17:04:49.021Z,82.63
2018-11-05T17:07:19.539Z,76.60
2018-11-05T17:09:55.496Z,76.17
2018-11-05T17:12:25.719Z,80.00
2018-11-05T17:14:56.486Z,79.23
2018-11-05T17:17:27.790Z,85.03
2018-11-05T17:20:03.470Z,83.73
2018-11-05T17:22:33.781Z,78.77
2018-11-05T17:25:06.686Z,86.30
2018-11-05T17:27:37.658Z,85.77
2018-11-05T17:30:12.325Z,85.40
2018-11-05T17:32:42.981Z,84.93
2018-11-05T17:35:13.375Z,81.87
2018-11-05T17:37:44.350Z,82.93
2018-11-05T17:40:20.119Z,88.80
2018-11-05T17:42:49.639Z,80.40
2018-11-05T17:45:20.370Z,83.83
2018-11-05T17:47:50.629Z,92.37
2018-11-05T17:50:21.865Z,101.53
2018-11-05T17:52:51.761Z,104.57
2018-11-05T17:55:23.734Z,105.27
2018-11-05T17:57:53.491Z,109.10
2018-11-05T18:00:26.092Z,106.63
2018-11-05T18:02:56.564Z,104.23
2018-11-05T18:05:26.663Z,103.83
2018-11-05T18:07:56.890Z,101.07
2018-11-05T18:10:26.685Z,106.87
2018-11-05T18:12:56.843Z,101.80
2018-11-05T18:15:27.221Z,101.07
2018-11-05T18:17:57.579Z,100.77
2018-11-05T18:20:27.884Z,108.27
2018-11-05T18:22:58.065Z,103.67
2018-11-05T18:25:28.359Z,102.77
2018-11-05T18:27:58.744Z,102.37
2018-11-05T18:30:28.628Z,104.23
2018-11-05T18:32:59.046Z,103.87
2018-11-05T18:35:34.020Z,108.00
2018-11-05T18:38:03.842Z,101.40
2018-11-05T18:40:33.782Z,105.30
2018-11-05T18:43:04.032Z,105.47
2018-11-05T18:45:34.156Z,110.00
2018-11-05T18:48:05.279Z,101.93
2018-11-05T18:50:35.709Z,103.63
2018-11-05T18:53:06.532Z,103.10
2018-11-05T18:55:36.822Z,111.30
2018-11-05T18:58:11.019Z,120.93
2018-11-05T19:00:46.586Z,118.83
2018-11-05T19:03:16.415Z,102.20
2018-11-05T19:05:46.941Z,111.80
2018-11-05T19:08:16.822Z,120.77
2018-11-05T19:10:47.016Z,118.77
2018-11-05T19:13:17.200Z,111.23
2018-11-05T19:15:48.335Z,106.50
2018-11-05T19:18:18.781Z,122.60
2018-11-05T19:20:53.847Z,123.00
2018-11-05T19:23:24.145Z,112.20
2018-11-05T19:25:54.485Z,123.13
2018-11-05T19:28:25.040Z,123.57
2018-11-05T19:30:55.191Z,119.03
2018-11-05T19:33:25.323Z,120.17
2018-11-05T19:35:55.098Z,113.23
2018-11-05T19:38:25.131Z,123.17
2018-11-05T19:40:55.200Z,135.33
2018-11-05T19:43:29.500Z,118.77
2018-11-05T19:46:04.010Z,125.60
2018-11-05T19:48:34.420Z,130.93
2018-11-05T19:51:04.072Z,119.27
2018-11-05T19:53:33.941Z,127.20
2018-11-05T19:56:03.927Z,137.57
2018-11-05T19:58:33.748Z,120.93
2018-11-05T20:03:38.600Z,124.50
2018-11-05T20:06:09.986Z,112.00
2018-11-05T20:08:40.484Z,126.23
2018-11-05T20:13:44.802Z,125.73
2018-11-05T20:16:15.205Z,125.97
2018-11-05T20:18:52.717Z,121.53
2018-11-05T20:23:56.968Z,119.77
2018-11-05T20:26:27.871Z,113.00
2018-11-05T20:28:57.912Z,112.13
2018-11-05T20:31:28.065Z,118.33
2018-11-05T20:33:58.264Z,123.60
2018-11-05T20:36:28.305Z,130.17
2018-11-05T20:39:04.363Z,131.13
2018-11-05T20:41:34.569Z,138.70
2018-11-05T20:44:08.164Z,146.80
2018-11-05T20:46:38.031Z,152.90
2018-11-05T20:49:08.425Z,155.17
2018-11-05T20:51:38.861Z,161.43
2018-11-05T20:54:15.882Z,152.20
2018-11-05T20:56:47.607Z,144.83
2018-11-05T20:59:17.605Z,143.87
2018-11-05T21:01:47.603Z,142.07
2018-11-05T21:04:17.644Z,143.23
2018-11-05T21:06:47.802Z,148.07
2018-11-05T21:09:22.143Z,136.07
2018-11-05T21:11:53.123Z,145.23
2018-11-05T21:14:27.073Z,140.63
2018-11-05T21:16:59.072Z,153.37
2018-11-05T21:19:29.188Z,149.13
2018-11-05T21:21:59.474Z,167.47
2018-11-05T21:24:29.540Z,160.30
2018-11-05T21:26:59.706Z,156.23
2018-11-05T21:29:29.601Z,153.57
2018-11-05T21:31:59.521Z,176.20
2018-11-05T21:34:29.583Z,179.53
2018-11-05T21:37:00.748Z,190.20
2018-11-05T21:39:30.860Z,223.90
2018-11-05T21:42:00.631Z,197.17
2018-11-05T21:44:30.454Z,192.37
2018-11-05T21:47:00.666Z,183.03
2018-11-05T21:49:30.707Z,187.77
2018-11-05T21:52:00.529Z,188.23
2018-11-05T21:54:30.682Z,175.67
2018-11-05T21:57:00.159Z,194.57
2018-11-05T21:59:33.937Z,197.20
2018-11-05T22:02:04.357Z,195.37
2018-11-05T22:04:34.486Z,193.13
2018-11-05T22:07:04.562Z,164.30
2018-11-05T22:09:34.556Z,261.47
2018-11-05T22:12:04.643Z,249.50
2018-11-05T22:14:34.664Z,262.00
2018-11-05T22:17:04.681Z,249.80
2018-11-05T22:22:08.264Z,217.07
2018-11-05T22:24:37.964Z,214.00
2018-11-05T22:27:17.060Z,223.63
2018-11-05T22:29:46.924Z,202.90
2018-11-05T22:32:16.804Z,204.73
2018-11-05T22:34:46.564Z,203.00
2018-11-05T22:37:17.021Z,204.13
2018-11-05T22:39:47.026Z,199.53
2018-11-05T22:42:17.047Z,194.67
2018-11-05T22:44:47.206Z,178.60
2018-11-05T22:47:17.165Z,176.20
2018-11-05T22:49:47.284Z,187.13
2018-11-05T22:52:19.023Z,179.70
2018-11-05T22:54:49.243Z,168.93
2018-11-05T22:57:19.183Z,173.37
2018-11-05T22:59:48.944Z,154.53
2018-11-05T23:02:19.150Z,161.00
2018-11-05T23:04:49.440Z,159.00
2018-11-05T23:07:19.259Z,157.90
2018-11-05T23:09:49.220Z,154.30
2018-11-05T23:12:23.640Z,167.93
2018-11-05T23:14:53.979Z,169.37
2018-11-05T23:17:24.165Z,171.33
2018-11-05T23:19:58.398Z,168.13
2018-11-05T23:22:32.758Z,162.73
2018-11-05T23:25:03.043Z,159.53
2018-11-05T23:27:37.179Z,157.67
2018-11-05T23:30:09.418Z,165.33
2018-11-05T23:32:40.278Z,165.30
2018-11-05T23:35:11.058Z,173.83
2018-11-05T23:37:42.218Z,170.23
2018-11-05T23:40:12.339Z,180.47
2018-11-05T23:42:42.318Z,180.67
2018-11-05T23:45:16.818Z,175.87
2018-11-05T23:47:47.099Z,171.13
2018-11-05T23:50:17.441Z,172.37
2018-11-05T23:52:47.498Z,183.10
2018-11-05T23:55:17.379Z,179.03
2018-11-05T23:57:47.678Z,180.07
